| time (UTC) | temp F | wind direction | speed knots | gust knots | rain 1hr in | rain 24hr in | rain mn in | humidity % | barometer mb |
| 20260508140111 | 55 | 278 | 9.6 | 19.1 | 0.00 | 0.00 | 0.00 | 57 | 1019.0 |
| 20260508134610 | 55 | 283 | 7.8 | 16.5 | 0.00 | 0.00 | 0.00 | 58 | 1019.0 |
| 20260508133035 | 55 | 279 | 7.8 | 17.4 | 0.00 | 0.00 | 0.00 | 60 | 1018.8 |
| 20260508131531 | 55 | 281 | 7.8 | 17.4 | 0.00 | 0.00 | 0.00 | 62 | 1018.7 |
| 20260508130037 | 56 | 285 | 8.7 | 18.2 | 0.00 | 0.00 | 0.00 | 62 | 1018.5 |
| 20260508124537 | 56 | 285 | 7.8 | 17.4 | 0.00 | 0.00 | 0.00 | 62 | 1018.4 |
| 20260508123035 | 56 | 285 | 8.7 | 20.9 | 0.00 | 0.00 | 0.00 | 61 | 1018.4 |
| 20260508121531 | 56 | 295 | 6.1 | 13.9 | 0.00 | 0.00 | 0.00 | 60 | 1018.3 |
| 20260508120153 | 56 | 301 | 5.2 | 12.2 | 0.00 | 0.00 | 0.00 | 60 | 1018.3 |
| 20260508114536 | 55 | 285 | 6.1 | 14.8 | 0.00 | 0.00 | 0.00 | 62 | 1018.2 |
| 20260508113036 | 46 | 197 | 1.7 | 7.8 | 0.00 | 0.00 | 0.00 | 76 | 1017.8 |
| 20260508104534 | 47 | 173 | 0.9 | 3.5 | 0.00 | 0.00 | 0.00 | 70 | 1017.8 |
| 20260508103045 | 47 | 179 | 0.9 | 3.5 | 0.00 | 0.00 | 0.00 | 70 | 1017.8 |
| 20260508103036 | 47 | 199 | 2.6 | 5.2 | 0.00 | 0.00 | 0.00 | 71 | 1017.9 |
| 20260508094534 | 49 | 150 | 0.9 | 3.5 | 0.00 | 0.00 | 0.00 | 65 | 1017.8 |
| 20260508093031 | 51 | 33 | 0.0 | 3.5 | 0.00 | 0.00 | 0.00 | 63 | 1017.8 |
| 20260508091535 | 51 | 271 | 0.9 | 3.5 | 0.00 | 0.00 | 0.00 | 61 | 1017.8 |
| 20260508090036 | 51 | 226 | 0.0 | 4.3 | 0.00 | 0.00 | 0.00 | 60 | 1017.7 |
| 20260508084534 | 52 | 172 | 1.7 | 4.3 | 0.00 | 0.00 | 0.00 | 56 | 1017.7 |
| 20260508083035 | 53 | 154 | 0.0 | 2.6 | 0.00 | 0.00 | 0.00 | 52 | 1017.7 |
| 20260508081535 | 55 | 40 | 0.0 | 2.6 | 0.00 | 0.00 | 0.00 | 49 | 1017.7 |
| 20260508080034 | 57 | 325 | 0.0 | 7.0 | 0.00 | 0.00 | 0.00 | 46 | 1017.7 |
| 20260508074537 | 59 | 283 | 0.9 | 5.2 | 0.00 | 0.00 | 0.00 | 42 | 1017.8 |
| 20260508073034 | 60 | 209 | 0.9 | 9.6 | 0.00 | 0.00 | 0.00 | 41 | 1017.7 |
| 20260508071534 | 60 | 293 | 5.2 | 12.2 | 0.00 | 0.00 | 0.00 | 41 | 1017.6 |
| 20260508070109 | 60 | 290 | 5.2 | 10.4 | 0.00 | 0.00 | 0.00 | 41 | 1017.6 |
| 20260508064535 | 60 | 286 | 6.1 | 12.2 | 0.00 | 0.00 | 0.00 | 41 | 1017.6 |
| 20260508054531 | 62 | 292 | 6.1 | 13.9 | 0.00 | 0.00 | 0.00 | 40 | 1017.7 |
| 20260508053033 | 62 | 286 | 6.1 | 15.6 | 0.00 | 0.00 | 0.00 | 40 | 1017.7 |
| 20260508051534 | 62 | 285 | 6.1 | 13.9 | 0.00 | 0.00 | 0.00 | 40 | 1017.7 |
| 20260508050034 | 63 | 292 | 7.0 | 14.8 | 0.00 | 0.00 | 0.00 | 40 | 1017.5 |
| 20260508044533 | 63 | 293 | 7.8 | 20.0 | 0.00 | 0.00 | 0.00 | 41 | 1017.5 |
| 20260508043031 | 63 | 290 | 8.7 | 15.6 | 0.00 | 0.00 | 0.00 | 40 | 1017.4 |
| 20260508041532 | 63 | 282 | 7.0 | 13.9 | 0.00 | 0.00 | 0.00 | 38 | 1017.3 |
| 20260508034538 | 63 | 283 | 6.1 | 14.8 | 0.00 | 0.00 | 0.00 | 37 | 1017.2 |
| 20260508033035 | 64 | 293 | 6.1 | 13.0 | 0.00 | 0.00 | 0.00 | 34 | 1017.0 |
| 20260508031537 | 65 | 298 | 6.1 | 11.3 | 0.00 | 0.00 | 0.00 | 32 | 1016.9 |
| 20260508030035 | 65 | 297 | 7.0 | 13.9 | 0.00 | 0.00 | 0.00 | 29 | 1016.8 |
| 20260508024534 | 66 | 298 | 7.8 | 20.0 | 0.00 | 0.00 | 0.00 | 27 | 1016.7 |
| 20260508023108 | 67 | 300 | 7.8 | 15.6 | 0.00 | 0.00 | 0.00 | 26 | 1016.6 |
| 20260508021536 | 68 | 296 | 8.7 | 16.5 | 0.00 | 0.00 | 0.00 | 25 | 1016.6 |
| 20260508014535 | 69 | 296 | 8.7 | 17.4 | 0.00 | 0.00 | 0.00 | 24 | 1016.5 |
| 20260508013033 | 69 | 298 | 8.7 | 20.0 | 0.00 | 0.00 | 0.00 | 24 | 1016.6 |
| 20260508011531 | 70 | 299 | 7.8 | 19.1 | 0.00 | 0.00 | 0.00 | 24 | 1016.7 |
| 20260508010153 | 69 | 301 | 7.8 | 16.5 | 0.00 | 0.00 | 0.00 | 23 | 1016.8 |
| 20260508010143 | 69 | 296 | 9.6 | 19.1 | 0.00 | 0.00 | 0.00 | 22 | 1016.7 |
| 20260508003035 | 70 | 298 | 9.6 | 17.4 | 0.00 | 0.00 | 0.00 | 22 | 1016.7 |
| 20260508000039 | 70 | 297 | 9.6 | 22.6 | 0.00 | 0.00 | 0.00 | 22 | 1016.6 |
| 20260507234536 | 71 | 300 | 9.6 | 20.9 | 0.00 | 0.00 | 0.00 | 21 | 1016.7 |
| 20260507233108 | 70 | 298 | 10.4 | 24.3 | 0.00 | 0.00 | 0.00 | 21 | 1016.6 |
| 20260507230034 | 70 | 293 | 11.3 | 21.7 | 0.00 | 0.00 | 0.00 | 25 | 1016.9 |
| 20260507223031 | 70 | 299 | 11.3 | 21.7 | 0.00 | 0.00 | 0.00 | 28 | 1017.1 |
| 20260507221537 | 69 | 295 | 11.3 | 26.1 | 0.00 | 0.00 | 0.00 | 30 | 1017.3 |
| 20260507214533 | 69 | 296 | 8.7 | 21.7 | 0.00 | 0.00 | 0.00 | 33 | 1017.7 |
| 20260507210032 | 68 | 296 | 11.3 | 21.7 | 0.00 | 0.00 | 0.00 | 38 | 1017.8 |
| 20260507203037 | 67 | 296 | 11.3 | 20.0 | 0.00 | 0.00 | 0.00 | 40 | 1018.0 |
| 20260507201536 | 67 | 290 | 11.3 | 24.3 | 0.00 | 0.00 | 0.00 | 40 | 1018.3 |
| 20260507200036 | 66 | 298 | 10.4 | 20.9 | 0.00 | 0.00 | 0.00 | 40 | 1018.5 |
| 20260507194532 | 65 | 293 | 11.3 | 20.9 | 0.00 | 0.00 | 0.00 | 43 | 1018.6 |
| 20260507193034 | 65 | 290 | 11.3 | 23.5 | 0.00 | 0.00 | 0.00 | 45 | 1018.7 |
| 20260507191534 | 64 | 293 | 9.6 | 19.1 | 0.00 | 0.00 | 0.00 | 47 | 1019.0 |
| 20260507190029 | 64 | 296 | 10.4 | 21.7 | 0.00 | 0.00 | 0.00 | 48 | 1019.4 |
| 20260507184536 | 63 | 294 | 6.1 | 12.2 | 0.00 | 0.00 | 0.00 | 52 | 1020.0 |
| 20260507181534 | 62 | 285 | 5.2 | 11.3 | 0.00 | 0.00 | 0.00 | 54 | 1020.2 |
| 20260507180031 | 61 | 278 | 5.2 | 12.2 | 0.00 | 0.00 | 0.00 | 55 | 1020.2 |
| 20260507174536 | 60 | 283 | 8.7 | 16.5 | 0.00 | 0.00 | 0.00 | 57 | 1020.2 |
| 20260507173034 | 59 | 290 | 7.0 | 19.1 | 0.00 | 0.00 | 0.00 | 60 | 1020.3 |
| 20260507171539 | 58 | 299 | 9.6 | 20.0 | 0.00 | 0.00 | 0.00 | 61 | 1020.2 |
| 20260507170033 | 57 | 302 | 11.3 | 21.7 | 0.00 | 0.00 | 0.00 | 62 | 1020.1 |
| 20260507164533 | 57 | 297 | 11.3 | 21.7 | 0.00 | 0.00 | 0.00 | 64 | 1020.0 |
| 20260507163037 | 56 | 292 | 11.3 | 23.5 | 0.00 | 0.00 | 0.00 | 65 | 1020.3 |
| 20260507160111 | 56 | 289 | 10.4 | 23.5 | 0.00 | 0.00 | 0.00 | 68 | 1020.4 |
| 20260507154534 | 55 | 291 | 11.3 | 22.6 | 0.00 | 0.00 | 0.00 | 70 | 1020.6 |
| 20260507153036 | 54 | 292 | 12.2 | 23.5 | 0.00 | 0.00 | 0.00 | 71 | 1020.6 |
| 20260507151536 | 54 | 297 | 11.3 | 21.7 | 0.00 | 0.00 | 0.00 | 72 | 1020.7 |
| 20260507150109 | 54 | 293 | 8.7 | 16.5 | 0.00 | 0.00 | 0.00 | 74 | 1020.9 |
| 20260507144537 | 53 | 295 | 8.7 | 16.5 | 0.00 | 0.00 | 0.00 | 76 | 1021.0 |
| 20260507143037 | 52 | 294 | 7.8 | 19.1 | 0.00 | 0.00 | 0.00 | 78 | 1020.9 |
| 20260507141536 | 52 | 297 | 7.0 | 16.5 | 0.00 | 0.00 | 0.00 | 79 | 1020.8 |